createdAt,value
2023-05-01T00:02:24.364Z,95063.91
2023-05-01T00:04:52.336Z,95053.66
2023-05-01T00:07:20.890Z,95062.19
2023-05-01T00:09:48.823Z,95050.38
2023-05-01T00:12:16.712Z,95055.63
2023-05-01T00:14:46.109Z,95050.38
2023-05-01T00:17:14.112Z,95044.00
2023-05-01T00:19:42.039Z,95043.63
2023-05-01T00:22:09.985Z,95040.56
2023-05-01T00:24:38.028Z,95043.25
2023-05-01T00:27:06.265Z,95042.16
2023-05-01T00:29:34.136Z,95040.09
2023-05-01T00:32:05.635Z,95036.41
2023-05-01T00:34:33.703Z,95034.34
2023-05-01T00:37:01.604Z,95035.94
2023-05-01T00:39:29.539Z,95031.66
2023-05-01T00:41:57.629Z,95031.53
2023-05-01T00:44:25.806Z,95024.59
2023-05-01T00:46:54.834Z,95031.28
2023-05-01T00:49:24.147Z,95035.91
2023-05-01T00:51:54.312Z,95021.97
2023-05-01T00:54:23.177Z,95019.91
2023-05-01T00:56:52.219Z,95024.66
2023-05-01T00:59:20.194Z,95020.69
2023-05-01T01:01:48.237Z,95013.63
2023-05-01T01:04:16.181Z,95011.63
2023-05-01T01:06:53.451Z,95007.06
2023-05-01T01:09:33.613Z,95008.78
2023-05-01T01:12:10.809Z,95011.47
2023-05-01T01:14:47.563Z,95007.88
2023-05-01T01:17:21.760Z,95002.66
2023-05-01T01:20:32.382Z,94998.53
2023-05-01T01:23:25.422Z,94997.97
2023-05-01T01:26:12.493Z,94993.84
2023-05-01T01:28:57.032Z,94997.00
2023-05-01T01:31:33.951Z,94990.19
2023-05-01T01:34:14.500Z,94988.59
2023-05-01T01:36:47.910Z,94990.19
2023-05-01T01:39:30.138Z,94990.19
2023-05-01T01:41:59.929Z,94988.09
2023-05-01T01:44:34.743Z,94990.72
2023-05-01T01:47:06.125Z,94988.59
2023-05-01T01:49:41.620Z,94986.38
2023-05-01T01:52:11.733Z,94983.72
2023-05-01T01:54:44.863Z,94987.47
2023-05-01T01:57:15.914Z,94990.22
2023-05-01T01:59:47.292Z,94987.94
2023-05-01T02:02:16.641Z,94984.78
2023-05-01T02:04:46.895Z,94990.50
2023-05-01T02:07:16.039Z,94989.53
2023-05-01T02:09:47.090Z,94983.34
2023-05-01T02:12:17.852Z,94981.31
2023-05-01T02:14:47.238Z,94987.66
2023-05-01T02:17:16.923Z,94984.00
2023-05-01T02:19:48.645Z,94986.63
2023-05-01T02:22:18.452Z,94978.81
2023-05-01T02:24:48.368Z,94982.00
2023-05-01T02:27:21.155Z,94974.69
2023-05-01T02:29:51.993Z,94978.81
2023-05-01T02:32:20.053Z,94979.31
2023-05-01T02:34:49.569Z,94978.22
2023-05-01T02:37:18.145Z,94971.38
2023-05-01T02:39:47.399Z,94976.63
2023-05-01T02:42:17.734Z,94975.22
2023-05-01T02:44:51.910Z,94977.91
2023-05-01T02:47:23.902Z,94967.22
2023-05-01T02:49:55.528Z,94982.00
2023-05-01T02:52:24.074Z,94980.72
2023-05-01T02:55:03.549Z,94971.03
2023-05-01T02:57:33.384Z,94972.63
2023-05-01T03:00:01.409Z,94977.38
2023-05-01T03:02:29.369Z,94974.19
2023-05-01T03:04:58.792Z,94977.38
2023-05-01T03:07:31.436Z,94970.84
2023-05-01T03:09:59.376Z,94971.63
2023-05-01T03:12:27.344Z,94961.63
2023-05-01T03:14:55.290Z,94956.88
2023-05-01T03:17:23.447Z,94954.25
2023-05-01T03:19:51.669Z,94950.03
2023-05-01T03:22:21.016Z,94954.50
2023-05-01T03:24:49.846Z,94955.75
2023-05-01T03:27:17.779Z,94944.06
2023-05-01T03:29:45.702Z,94950.28
2023-05-01T03:32:13.798Z,94946.63
2023-05-01T03:34:41.849Z,94942.00
2023-05-01T03:37:10.035Z,94935.75
2023-05-01T03:39:39.583Z,94934.47
2023-05-01T03:42:26.286Z,94932.09
2023-05-01T03:45:01.174Z,94933.09
2023-05-01T03:47:30.369Z,94938.81
2023-05-01T03:49:58.882Z,94936.00
2023-05-01T03:52:27.736Z,94938.75
2023-05-01T03:54:58.484Z,94937.47
2023-05-01T03:57:41.262Z,94937.28
2023-05-01T04:00:11.846Z,94938.69
2023-05-01T04:02:48.599Z,94949.66
2023-05-01T04:05:22.189Z,94946.50
2023-05-01T04:07:58.002Z,94951.75
2023-05-01T04:10:28.371Z,94953.81
2023-05-01T04:13:04.963Z,94951.44
2023-05-01T04:15:32.895Z,94955.88
2023-05-01T04:18:01.694Z,94946.50
2023-05-01T04:20:29.896Z,94957.03
2023-05-01T04:22:57.932Z,94960.78
2023-05-01T04:25:25.899Z,94956.00
2023-05-01T04:27:59.737Z,94966.84
2023-05-01T04:30:27.764Z,94972.09
2023-05-01T04:32:55.868Z,94974.78
2023-05-01T04:35:23.943Z,94975.38
2023-05-01T04:37:51.911Z,94971.28
2023-05-01T04:40:19.905Z,94969.19
2023-05-01T04:42:47.965Z,94976.28
2023-05-01T04:45:17.745Z,94979.19
2023-05-01T04:47:45.853Z,94981.28
2023-05-01T04:50:14.431Z,94983.34
2023-05-01T04:52:42.453Z,94987.00
2023-05-01T04:55:11.530Z,94984.13
2023-05-01T04:57:47.952Z,94990.63
2023-05-01T05:00:19.144Z,94984.78
2023-05-01T05:02:54.397Z,94988.13
2023-05-01T05:05:22.654Z,94987.34
2023-05-01T05:07:51.327Z,94987.94
2023-05-01T05:10:59.021Z,94987.00
2023-05-01T05:13:31.086Z,94987.06
2023-05-01T05:16:03.725Z,94990.78
2023-05-01T05:18:32.487Z,94990.28
2023-05-01T05:21:05.054Z,94997.13
2023-05-01T05:23:33.657Z,94991.88
2023-05-01T05:26:02.315Z,94995.84
2023-05-01T05:28:30.639Z,94995.53
2023-05-01T05:30:59.312Z,94997.44
2023-05-01T05:33:29.253Z,94993.72
2023-05-01T05:35:59.685Z,94994.50
2023-05-01T05:38:32.978Z,94995.78
2023-05-01T05:41:01.965Z,95001.66
2023-05-01T05:43:32.366Z,95001.03
2023-05-01T05:46:01.295Z,94998.56
2023-05-01T05:48:32.142Z,94998.19
2023-05-01T05:51:00.280Z,94998.56
2023-05-01T05:53:28.245Z,95005.16
2023-05-01T05:55:56.287Z,95000.69
2023-05-01T05:58:24.735Z,95004.69
2023-05-01T06:00:55.711Z,95002.75
2023-05-01T06:03:24.255Z,95006.22
2023-05-01T06:05:56.328Z,95009.25
2023-05-01T06:08:24.405Z,95017.66
2023-05-01T06:10:52.465Z,95005.13
2023-05-01T06:13:20.634Z,95006.19
2023-05-01T06:15:50.783Z,95007.47
2023-05-01T06:18:18.922Z,95016.59
2023-05-01T06:20:47.861Z,95009.13
2023-05-01T06:23:17.188Z,95011.72
2023-05-01T06:25:58.938Z,95006.91
2023-05-01T06:28:26.893Z,95016.56
2023-05-01T06:30:56.000Z,95018.69
2023-05-01T06:33:25.847Z,95011.03
2023-05-01T06:36:04.649Z,95031.06
2023-05-01T06:38:34.389Z,95032.84
2023-05-01T06:41:02.320Z,95032.09
2023-05-01T06:43:31.178Z,95033.38
2023-05-01T06:45:59.256Z,95040.88
2023-05-01T06:48:27.247Z,95035.63
2023-05-01T06:50:56.587Z,95042.13
2023-05-01T06:53:24.634Z,95051.81
2023-05-01T06:55:53.909Z,95051.34
2023-05-01T06:58:24.147Z,95057.69
2023-05-01T07:00:53.861Z,95061.41
2023-05-01T07:03:22.249Z,95054.66
2023-05-01T07:05:50.199Z,95064.69
2023-05-01T07:08:18.346Z,95066.84
2023-05-01T07:10:46.354Z,95073.59
2023-05-01T07:13:15.958Z,95066.34
2023-05-01T07:15:43.930Z,95068.63
2023-05-01T07:18:13.405Z,95077.53
2023-05-01T07:20:41.349Z,95079.28
2023-05-01T07:23:09.841Z,95070.56
2023-05-01T07:25:38.712Z,95063.88
2023-05-01T07:28:08.123Z,95060.91
2023-05-01T07:30:38.466Z,95058.38
2023-05-01T07:33:06.900Z,95067.75
2023-05-01T07:35:34.912Z,95066.13
2023-05-01T07:38:02.853Z,95061.38
2023-05-01T07:40:31.094Z,95058.19
2023-05-01T07:42:58.993Z,95070.94
2023-05-01T07:45:27.065Z,95067.28
2023-05-01T07:47:57.127Z,95065.19
2023-05-01T07:50:26.413Z,95068.94
2023-05-01T07:52:54.330Z,95066.63
2023-05-01T07:55:23.305Z,95069.00
2023-05-01T07:57:51.270Z,95071.06
2023-05-01T08:00:19.772Z,95077.09
2023-05-01T08:02:48.468Z,95076.97
2023-05-01T08:05:17.834Z,95070.75
2023-05-01T08:07:46.324Z,95080.75
2023-05-01T08:10:15.030Z,95075.03
2023-05-01T08:12:43.049Z,95078.78
2023-05-01T08:15:11.239Z,95086.78
2023-05-01T08:17:39.344Z,95087.38
2023-05-01T08:20:08.946Z,95090.41
2023-05-01T08:22:38.216Z,95091.28
2023-05-01T08:25:07.167Z,95088.47
2023-05-01T08:27:35.249Z,95089.25
2023-05-01T08:30:03.260Z,95087.03
2023-05-01T08:32:31.273Z,95093.66
2023-05-01T08:34:59.228Z,95085.84
2023-05-01T08:37:27.148Z,95086.97
2023-05-01T08:39:56.912Z,95083.31
2023-05-01T08:42:25.690Z,95089.59
2023-05-01T08:44:58.891Z,95096.09
2023-05-01T08:47:27.721Z,95090.00
2023-05-01T08:49:56.839Z,95098.91
2023-05-01T08:52:27.725Z,95098.44
2023-05-01T08:54:58.612Z,95095.75
2023-05-01T08:57:28.405Z,95093.19
2023-05-01T08:59:58.777Z,95095.88
2023-05-01T09:02:27.771Z,95091.72
2023-05-01T09:04:56.302Z,95084.50
2023-05-01T09:07:24.330Z,95083.06
2023-05-01T09:09:52.243Z,95082.09
2023-05-01T09:12:24.328Z,95081.22
2023-05-01T09:14:53.302Z,95091.13
2023-05-01T09:17:22.860Z,95091.44
2023-05-01T09:19:51.900Z,95093.09
2023-05-01T09:22:20.388Z,95085.78
2023-05-01T09:24:48.295Z,95087.94
2023-05-01T09:27:16.665Z,95101.13
2023-05-01T09:29:47.455Z,95098.53
2023-05-01T09:32:17.757Z,95102.19
2023-05-01T09:34:45.900Z,95107.88
2023-05-01T09:37:15.798Z,95105.81
2023-05-01T09:39:43.739Z,95107.88
2023-05-01T09:42:11.920Z,95098.97
2023-05-01T09:44:45.231Z,95105.03
2023-05-01T09:47:15.915Z,95103.31
2023-05-01T09:49:48.804Z,95106.25
2023-05-01T09:52:17.256Z,95103.91
2023-05-01T09:54:45.178Z,95102.88
2023-05-01T09:57:13.778Z,95108.66
2023-05-01T09:59:41.729Z,95107.19
2023-05-01T10:02:30.978Z,95103.06
2023-05-01T10:04:59.989Z,95109.38
2023-05-01T10:07:28.034Z,95112.06
2023-05-01T10:09:58.511Z,95106.31
2023-05-01T10:12:29.204Z,95106.31
2023-05-01T10:15:03.423Z,95111.59
2023-05-01T10:17:37.391Z,95114.25
2023-05-01T10:20:06.115Z,95116.41
2023-05-01T10:22:34.258Z,95119.72
2023-05-01T10:25:02.498Z,95110.00
2023-05-01T10:27:30.706Z,95109.09
2023-05-01T10:29:59.371Z,95111.31
2023-05-01T10:32:27.417Z,95115.56
2023-05-01T10:35:01.537Z,95118.09
2023-05-01T10:37:35.927Z,95103.28
2023-05-01T10:40:37.032Z,95115.44
2023-05-01T10:43:15.926Z,95112.81
2023-05-01T10:45:44.719Z,95102.28
2023-05-01T10:48:12.811Z,95106.47
2023-05-01T10:51:13.558Z,95097.50
2023-05-01T10:53:44.400Z,95101.09
2023-05-01T10:56:43.466Z,95089.06
2023-05-01T10:59:13.019Z,95096.72
2023-05-01T11:01:42.247Z,95098.16
2023-05-01T11:04:51.514Z,95097.09
2023-05-01T11:07:20.819Z,95105.09
2023-05-01T11:09:54.854Z,95100.41
2023-05-01T11:12:52.200Z,95099.34
2023-05-01T11:15:31.055Z,95100.75
2023-05-01T11:18:00.234Z,95096.19
2023-05-01T11:21:02.660Z,95085.59
2023-05-01T11:23:30.802Z,95097.75
2023-05-01T11:26:07.495Z,95090.78
2023-05-01T11:28:35.552Z,95082.84
2023-05-01T11:31:03.749Z,95089.69
2023-05-01T11:33:32.098Z,95088.22
2023-05-01T11:36:04.396Z,95094.09
2023-05-01T11:38:32.403Z,95101.59
2023-05-01T11:41:02.178Z,95095.28
2023-05-01T11:43:31.970Z,95088.13
2023-05-01T11:46:05.795Z,95091.84
2023-05-01T11:48:33.845Z,95075.06
2023-05-01T11:51:01.748Z,95078.81
2023-05-01T11:53:30.378Z,95085.69
2023-05-01T11:55:59.669Z,95080.38
2023-05-01T11:58:36.600Z,95085.25
2023-05-01T12:01:04.969Z,95080.00
2023-05-01T12:03:43.224Z,95077.34
2023-05-01T12:06:13.127Z,95083.63
2023-05-01T12:08:45.392Z,95073.03
2023-05-01T12:11:13.562Z,95076.19
2023-05-01T12:13:43.914Z,95077.50
2023-05-01T12:16:11.954Z,95078.81
2023-05-01T12:18:40.055Z,95077.47
2023-05-01T12:21:17.114Z,95074.00
2023-05-01T12:23:45.044Z,95074.00
2023-05-01T12:26:20.551Z,95082.94
2023-05-01T12:29:00.129Z,95078.63
2023-05-01T12:31:29.296Z,95075.91
2023-05-01T12:33:59.083Z,95079.63
2023-05-01T12:36:28.961Z,95077.84
2023-05-01T12:39:00.676Z,95080.22
2023-05-01T12:41:37.349Z,95091.13
2023-05-01T12:44:18.995Z,95085.06
2023-05-01T12:46:54.005Z,95096.63
2023-05-01T12:49:23.020Z,95090.25
2023-05-01T12:51:53.197Z,95086.56
2023-05-01T12:54:22.597Z,95093.47
2023-05-01T12:56:50.874Z,95091.38
2023-05-01T12:59:25.131Z,95090.88
2023-05-01T13:02:00.507Z,95090.38
2023-05-01T13:04:29.527Z,95083.81
2023-05-01T13:06:58.639Z,95091.00
2023-05-01T13:09:28.546Z,95080.47
2023-05-01T13:12:01.883Z,95080.50
2023-05-01T13:14:37.249Z,95077.06
2023-05-01T13:17:06.720Z,95071.69
2023-05-01T13:19:37.274Z,95080.38
2023-05-01T13:22:06.360Z,95074.59
2023-05-01T13:24:39.583Z,95081.06
2023-05-01T13:27:09.069Z,95085.75
2023-05-01T13:29:39.641Z,95083.41
2023-05-01T13:32:12.118Z,95073.81
2023-05-01T13:34:43.808Z,95075.81
2023-05-01T13:37:13.698Z,95079.69
2023-05-01T13:39:43.034Z,95092.47
2023-05-01T13:42:13.353Z,95089.34
2023-05-01T13:44:47.686Z,95084.19
2023-05-01T13:47:18.210Z,95092.50
2023-05-01T13:49:48.734Z,95083.00
2023-05-01T13:52:18.332Z,95085.59
2023-05-01T13:54:46.969Z,95088.69
2023-05-01T13:57:15.674Z,95074.72
2023-05-01T13:59:46.167Z,95071.22
2023-05-01T14:02:21.833Z,95072.56
2023-05-01T14:04:50.261Z,95071.56
2023-05-01T14:07:20.344Z,95067.63
2023-05-01T14:09:54.012Z,95069.53
2023-05-01T14:12:25.630Z,95066.56
2023-05-01T14:14:55.135Z,95064.25
2023-05-01T14:17:28.908Z,95062.22
2023-05-01T14:19:56.939Z,95068.63
2023-05-01T14:22:24.931Z,95071.28
2023-05-01T14:24:52.817Z,95068.13
2023-05-01T14:27:21.764Z,95072.16
2023-05-01T14:29:50.422Z,95073.91
2023-05-01T14:32:19.805Z,95067.03
2023-05-01T14:34:47.718Z,95071.75
2023-05-01T14:37:16.160Z,95073.31
2023-05-01T14:39:44.112Z,95069.53
2023-05-01T14:42:12.012Z,95072.94
2023-05-01T14:44:43.335Z,95066.53
2023-05-01T14:47:11.346Z,95062.78
2023-05-01T14:49:42.714Z,95063.63
2023-05-01T14:52:12.329Z,95059.69
2023-05-01T14:54:47.397Z,95070.00
2023-05-01T14:57:16.114Z,95063.44
2023-05-01T14:59:44.042Z,95068.97
2023-05-01T15:02:12.024Z,95066.38
2023-05-01T15:04:44.764Z,95064.56
2023-05-01T15:07:12.834Z,95069.84
2023-05-01T15:09:42.919Z,95075.13
2023-05-01T15:12:11.358Z,95066.63
2023-05-01T15:14:39.278Z,95073.72
2023-05-01T15:17:07.289Z,95069.66
2023-05-01T15:19:35.187Z,95067.53
2023-05-01T15:22:04.853Z,95067.50
2023-05-01T15:24:32.783Z,95079.06
2023-05-01T15:27:00.976Z,95083.22
2023-05-01T15:29:28.857Z,95086.88
2023-05-01T15:32:08.169Z,95078.72
2023-05-01T15:34:39.892Z,95089.50
2023-05-01T15:37:09.533Z,95081.03
2023-05-01T15:39:38.732Z,95088.66
2023-05-01T15:42:06.640Z,95095.66
2023-05-01T15:44:34.591Z,95101.84
2023-05-01T15:47:02.528Z,95110.66
2023-05-01T15:49:30.582Z,95113.25
2023-05-01T15:51:58.549Z,95122.31
2023-05-01T15:54:28.126Z,95128.47
2023-05-01T15:56:56.046Z,95137.75
2023-05-01T15:59:23.984Z,95134.28
2023-05-01T16:01:54.105Z,95126.91
2023-05-01T16:04:22.462Z,95117.47
2023-05-01T16:06:50.561Z,95102.66
2023-05-01T16:09:19.034Z,95107.28
2023-05-01T16:11:48.375Z,95098.78
2023-05-01T16:14:17.040Z,95099.44
2023-05-01T16:16:45.028Z,95102.00
2023-05-01T16:19:17.218Z,95093.50
2023-05-01T16:21:45.910Z,95101.38
2023-05-01T16:24:14.834Z,95099.22
2023-05-01T16:26:42.831Z,95108.69
2023-05-01T16:29:12.240Z,95110.94
2023-05-01T16:31:41.966Z,95109.94
2023-05-01T16:34:13.327Z,95112.69
2023-05-01T16:36:43.468Z,95114.31
2023-05-01T16:39:13.790Z,95114.38
2023-05-01T16:41:45.568Z,95116.13
2023-05-01T16:44:16.196Z,95111.56
2023-05-01T16:46:44.808Z,95111.13
2023-05-01T16:49:13.721Z,95105.47
2023-05-01T16:51:42.656Z,95105.72
2023-05-01T16:54:10.828Z,95105.94
2023-05-01T16:56:39.181Z,95108.69
2023-05-01T16:59:07.216Z,95117.25
2023-05-01T17:01:36.596Z,95121.59
2023-05-01T17:04:04.668Z,95113.19
2023-05-01T17:06:32.797Z,95123.16
2023-05-01T17:09:00.773Z,95125.66
2023-05-01T17:11:30.403Z,95125.09
2023-05-01T17:13:59.870Z,95132.03
2023-05-01T17:16:28.477Z,95131.81
2023-05-01T17:18:57.773Z,95132.75
2023-05-01T17:21:25.828Z,95140.09
2023-05-01T17:23:54.699Z,95142.94
2023-05-01T17:26:22.927Z,95144.00
2023-05-01T17:28:50.975Z,95135.72
2023-05-01T17:31:20.528Z,95145.63
2023-05-01T17:33:50.390Z,95135.09
2023-05-01T17:36:21.253Z,95132.75
2023-05-01T17:38:50.283Z,95135.44
2023-05-01T17:41:18.463Z,95133.53
2023-05-01T17:43:46.603Z,95131.59
2023-05-01T17:46:16.724Z,95128.63
2023-05-01T17:48:44.648Z,95136.59
2023-05-01T17:51:14.083Z,95135.63
2023-05-01T17:53:43.527Z,95139.91
2023-05-01T17:56:11.455Z,95138.84
2023-05-01T17:58:40.742Z,95138.03
2023-05-01T18:01:08.823Z,95146.06
2023-05-01T18:03:36.809Z,95142.09
2023-05-01T18:06:05.169Z,95137.88
2023-05-01T18:08:33.358Z,95144.69
2023-05-01T18:11:03.786Z,95144.47
2023-05-01T18:13:38.034Z,95145.47
2023-05-01T18:16:06.274Z,95144.97
2023-05-01T18:18:34.233Z,95146.56
2023-05-01T18:21:02.178Z,95145.94
2023-05-01T18:23:30.104Z,95147.75
2023-05-01T18:25:58.575Z,95150.66
2023-05-01T18:28:27.882Z,95143.53
2023-05-01T18:30:55.907Z,95147.28
2023-05-01T18:33:23.870Z,95152.16
2023-05-01T18:35:51.876Z,95144.72
2023-05-01T18:38:20.280Z,95148.28
2023-05-01T18:40:48.816Z,95154.47
2023-05-01T18:43:16.724Z,95150.16
2023-05-01T18:45:46.052Z,95157.91
2023-05-01T18:48:14.013Z,95160.44
2023-05-01T18:50:42.521Z,95157.19
2023-05-01T18:53:10.414Z,95157.03
2023-05-01T18:55:38.298Z,95163.25
2023-05-01T18:58:06.338Z,95161.13
2023-05-01T19:00:34.360Z,95167.97
2023-05-01T19:03:03.776Z,95167.34
2023-05-01T19:05:32.058Z,95165.16
2023-05-01T19:08:05.073Z,95175.63
2023-05-01T19:10:33.321Z,95175.47
2023-05-01T19:13:01.983Z,95180.38
2023-05-01T19:15:29.848Z,95182.13
2023-05-01T19:17:57.830Z,95185.75
2023-05-01T19:20:27.230Z,95187.34
2023-05-01T19:22:55.312Z,95191.47
2023-05-01T19:25:23.307Z,95189.41
2023-05-01T19:27:51.749Z,95187.03
2023-05-01T19:30:19.694Z,95196.72
2023-05-01T19:32:47.732Z,95192.50
2023-05-01T19:35:16.278Z,95198.31
2023-05-01T19:37:45.717Z,95201.50
2023-05-01T19:40:13.897Z,95193.53
2023-05-01T19:42:41.838Z,95188.75
2023-05-01T19:45:10.589Z,95191.38
2023-05-01T19:47:38.703Z,95182.72
2023-05-01T19:50:07.996Z,95188.75
2023-05-01T19:52:35.968Z,95202.09
2023-05-01T19:55:06.377Z,95191.25
2023-05-01T19:57:34.918Z,95194.34
2023-05-01T20:00:03.175Z,95204.28
2023-05-01T20:02:38.109Z,95212.03
2023-05-01T20:05:06.762Z,95210.94
2023-05-01T20:07:35.007Z,95207.28
2023-05-01T20:10:03.014Z,95206.16
2023-05-01T20:12:33.323Z,95221.09
2023-05-01T20:15:01.588Z,95223.91
2023-05-01T20:17:29.709Z,95241.03
2023-05-01T20:19:58.027Z,95245.84
2023-05-01T20:22:26.232Z,95257.44
2023-05-01T20:24:54.084Z,95249.25
2023-05-01T20:27:22.048Z,95253.09
2023-05-01T20:29:51.373Z,95253.75
2023-05-01T20:32:19.277Z,95253.22
2023-05-01T20:34:48.000Z,95257.78
2023-05-01T20:37:16.508Z,95250.22
2023-05-01T20:39:44.412Z,95251.53
2023-05-01T20:42:12.320Z,95253.69
2023-05-01T20:44:40.654Z,95256.44
2023-05-01T20:47:10.280Z,95256.88
2023-05-01T20:49:38.282Z,95254.94
2023-05-01T20:52:06.777Z,95261.91
2023-05-01T20:54:34.752Z,95261.25
2023-05-01T20:57:02.965Z,95271.50
2023-05-01T20:59:31.010Z,95265.00
2023-05-01T21:01:58.990Z,95266.50
2023-05-01T21:04:28.344Z,95267.44
2023-05-01T21:06:58.229Z,95263.00
2023-05-01T21:09:26.227Z,95256.97
2023-05-01T21:11:54.129Z,95260.59
2023-05-01T21:14:22.123Z,95258.56
2023-05-01T21:16:50.002Z,95256.50
2023-05-01T21:19:17.926Z,95259.69
2023-05-01T21:21:47.292Z,95257.63
2023-05-01T21:24:21.512Z,95260.78
2023-05-01T21:26:49.765Z,95270.47
2023-05-01T21:29:17.696Z,95279.75
2023-05-01T21:31:45.673Z,95268.97
2023-05-01T21:34:13.989Z,95270.69
2023-05-01T21:36:45.043Z,95265.31
2023-05-01T21:39:14.514Z,95270.09
2023-05-01T21:41:42.967Z,95265.22
2023-05-01T21:44:11.116Z,95270.44
2023-05-01T21:46:39.741Z,95267.50
2023-05-01T21:49:07.850Z,95269.53
2023-05-01T21:51:35.883Z,95269.53
2023-05-01T21:54:05.633Z,95275.91
2023-05-01T21:56:34.921Z,95264.53
2023-05-01T21:59:06.141Z,95255.22
2023-05-01T22:01:34.286Z,95254.66
2023-05-01T22:04:02.589Z,95250.88
2023-05-01T22:06:30.589Z,95251.56
2023-05-01T22:08:58.525Z,95253.97
2023-05-01T22:11:26.620Z,95258.16
2023-05-01T22:13:56.717Z,95255.91
2023-05-01T22:16:24.815Z,95253.84
2023-05-01T22:18:53.281Z,95243.97
2023-05-01T22:21:21.187Z,95260.13
2023-05-01T22:23:49.600Z,95247.94
2023-05-01T22:26:17.497Z,95250.19
2023-05-01T22:28:45.547Z,95254.19
2023-05-01T22:31:14.819Z,95262.97
2023-05-01T22:33:42.724Z,95258.16
2023-05-01T22:36:10.733Z,95262.25
2023-05-01T22:38:38.619Z,95270.25
2023-05-01T22:41:06.879Z,95277.06
2023-05-01T22:43:34.795Z,95272.97
2023-05-01T22:46:02.749Z,95276.28
2023-05-01T22:48:32.222Z,95267.97
2023-05-01T22:51:00.155Z,95271.84
2023-05-01T22:53:29.202Z,95269.44
2023-05-01T22:55:57.253Z,95268.75
2023-05-01T22:58:25.171Z,95269.09
2023-05-01T23:00:53.163Z,95277.41
2023-05-01T23:03:21.192Z,95273.06
2023-05-01T23:05:50.831Z,95270.47
2023-05-01T23:08:18.734Z,95266.81
2023-05-01T23:10:46.610Z,95276.16
2023-05-01T23:13:19.091Z,95270.81
2023-05-01T23:15:50.000Z,95266.38
2023-05-01T23:18:23.654Z,95262.50
2023-05-01T23:20:53.705Z,95266.81
2023-05-01T23:23:22.271Z,95269.66
2023-05-01T23:25:51.123Z,95265.78
2023-05-01T23:28:23.826Z,95260.69
2023-05-01T23:30:55.657Z,95267.19
2023-05-01T23:33:25.212Z,95259.34
2023-05-01T23:35:54.525Z,95257.03
2023-05-01T23:38:22.446Z,95264.78
2023-05-01T23:40:51.216Z,95256.00
2023-05-01T23:43:20.094Z,95252.25
2023-05-01T23:45:48.264Z,95243.84
2023-05-01T23:48:16.385Z,95239.75
2023-05-01T23:50:44.334Z,95242.84
2023-05-01T23:53:13.825Z,95239.28
2023-05-01T23:55:43.599Z,95224.72
2023-05-01T23:58:13.185Z,95224.84
